Jarbidge, Nevada
Current Conditions -  °F | °C
As of 7:53 PM on Wednesday 28 Jan 2015 (Local Time) from KTWF Reporting Station
Clear Clear  
Wind Chill: 37°   Ceiling: Unl
Heat Index: 37°   Visibility: 10mi
Dew Point: 31°   Wind: 0mph
Humidity: 79%   Direction: NA
Pressure: 30.38"   Gusts: NA
Location:  41.87°N, 115.43°W
Report Text: KTWF 290353Z 00000KT 10SM CLR 03/M01 A3038 RMK AO2 SLP286 T00281006
Loading
Personal Weather Stations






























Interactive Weather Map New forecast layout! Learn more

10-Day Weather Forecast

Advertisements
Track Severe Weather on mobile